Time;durP1;ratioP1;P1;durP2;ratioP2;P2;SDS_P1;SDS_P2;PMS_P1;PMS_P2;Temp;Humidity;BMP_temperature;BMP_pressure;BME280_temperature;BME280_humidity;BME280_pressure;Samples;Min_cycle;Max_cycle;Signal;HPM_P1;HPM_P2
2021/04/17 00:00:13;;;;;;;1.50;1.40;;;;;;;8.37;46.63;101789.66;686439;28;23506;-53
2021/04/17 00:00:36;;;;;;;1.30;1.20;;;;;;;8.38;46.46;101789.50;683919;28;68349;-56
2021/04/17 00:00:57;;;;;;;1.58;1.20;;;;;;;8.38;46.34;101794.91;687010;28;8231;-51
2021/04/17 00:01:19;;;;;;;1.20;1.20;;;;;;;8.38;46.59;101785.97;686277;28;13769;-55
2021/04/17 00:01:40;;;;;;;1.50;1.40;;;;;;;8.38;46.44;101785.97;686037;28;19639;-51
2021/04/17 00:02:03;;;;;;;2.13;1.20;;;;;;;8.37;46.45;101790.53;685410;28;46370;-56
2021/04/17 00:02:24;;;;;;;1.70;1.40;;;;;;;8.36;46.46;101778.03;684679;28;69528;-54
2021/04/17 00:02:45;;;;;;;1.58;1.48;;;;;;;8.38;46.52;101785.97;686319;28;8439;-53
2021/04/17 00:03:07;;;;;;;1.30;1.30;;;;;;;8.38;46.44;101785.97;686970;28;1221;-55
2021/04/17 00:03:28;;;;;;;1.30;1.30;;;;;;;8.37;46.60;101782.44;684399;28;46815;-57
2021/04/17 00:03:49;;;;;;;1.40;1.40;;;;;;;8.36;46.53;101782.59;686450;28;11979;-57
2021/04/17 00:04:12;;;;;;;1.50;1.40;;;;;;;8.39;46.28;101785.00;686441;28;15242;-62
2021/04/17 00:04:36;;;;;;;1.40;1.40;;;;;;;8.39;46.55;101783.16;683127;28;69378;-57
2021/04/17 00:04:57;;;;;;;1.60;1.40;;;;;;;8.39;46.31;101774.22;683696;28;92006;-53
2021/04/17 00:05:19;;;;;;;1.40;1.30;;;;;;;8.39;46.30;101783.16;686389;28;23491;-56
2021/04/17 00:05:40;;;;;;;2.33;1.33;;;;;;;8.40;46.37;101782.19;683192;28;46374;-55
2021/04/17 00:06:01;;;;;;;1.95;1.20;;;;;;;8.40;46.43;101781.31;684380;28;23391;-56
2021/04/17 00:06:23;;;;;;;1.20;1.20;;;;;;;8.39;46.27;101779.63;684163;28;23541;-58
2021/04/17 00:06:44;;;;;;;1.50;1.40;;;;;;;8.38;46.40;101773.38;681042;29;44377;-51
2021/04/17 00:07:07;;;;;;;1.45;1.35;;;;;;;8.38;46.47;101777.91;679074;29;23556;-53
2021/04/17 00:07:28;;;;;;;1.40;1.30;;;;;;;8.36;46.41;101778.03;678499;29;47448;-57
2021/04/17 00:07:49;;;;;;;1.45;1.35;;;;;;;8.38;46.50;101785.97;679555;29;46378;-55
2021/04/17 00:08:10;;;;;;;1.42;1.38;;;;;;;8.38;46.42;101780.59;680425;29;23580;-57
2021/04/17 00:08:31;;;;;;;1.60;1.50;;;;;;;8.37;46.54;101776.19;681165;28;21580;-57
2021/04/17 00:08:52;;;;;;;1.48;1.38;;;;;;;8.38;46.53;101772.53;683812;28;22429;-56
2021/04/17 00:09:16;;;;;;;1.55;1.27;;;;;;;8.37;46.58;101771.69;686076;28;22523;-56
2021/04/17 00:09:37;;;;;;;1.67;1.23;;;;;;;8.37;46.64;101763.59;683097;28;90283;-57
2021/04/17 00:09:58;;;;;;;2.13;1.30;;;;;;;8.37;46.42;101768.13;685749;28;37752;-57
2021/04/17 00:10:19;;;;;;;1.48;1.20;;;;;;;8.37;46.52;101771.69;686403;28;12754;-57
2021/04/17 00:10:40;;;;;;;1.50;1.20;;;;;;;8.39;46.64;101771.53;685636;28;22412;-56
2021/04/17 00:11:03;;;;;;;1.83;1.40;;;;;;;8.39;46.43;101768.84;686412;28;23643;-56
2021/04/17 00:11:24;;;;;;;1.35;1.30;;;;;;;8.40;46.41;101774.09;685298;28;44391;-57
2021/04/17 00:11:47;;;;;;;1.40;1.30;;;;;;;8.40;46.45;101770.53;682147;28;44359;-53
2021/04/17 00:12:11;;;;;;;1.30;1.30;;;;;;;8.38;46.34;101765.28;681647;28;46424;-56
2021/04/17 00:12:32;;;;;;;1.50;1.40;;;;;;;8.39;46.49;101768.84;680714;28;92310;-57
2021/04/17 00:12:53;;;;;;;1.90;1.45;;;;;;;8.39;46.46;101767.00;683055;28;23490;-57
2021/04/17 00:13:14;;;;;;;1.35;1.27;;;;;;;8.39;46.49;101761.63;682502;28;45260;-53
2021/04/17 00:13:35;;;;;;;1.40;1.40;;;;;;;8.40;46.62;101765.16;684131;28;22445;-58
2021/04/17 00:13:56;;;;;;;1.50;1.40;;;;;;;8.40;46.55;101765.16;686119;28;22396;-59
2021/04/17 00:14:20;;;;;;;1.50;1.40;;;;;;;8.39;46.55;101764.31;685357;28;23487;-56
2021/04/17 00:14:42;;;;;;;1.33;1.33;;;;;;;8.39;46.47;101763.47;683730;28;50553;-57
2021/04/17 00:15:04;;;;;;;1.20;1.20;;;;;;;8.39;46.66;101763.47;684336;28;37696;-54
2021/04/17 00:15:25;;;;;;;1.20;1.20;;;;;;;8.40;46.66;101763.31;683936;28;69323;-54
2021/04/17 00:15:46;;;;;;;1.42;1.33;;;;;;;8.40;46.50;101763.31;685879;28;22377;-59
2021/04/17 00:16:08;;;;;;;2.60;1.70;;;;;;;8.39;46.43;101764.31;686030;28;23361;-55
2021/04/17 00:16:29;;;;;;;1.63;1.27;;;;;;;8.39;46.57;101766.16;686250;28;23761;-59
2021/04/17 00:16:50;;;;;;;1.40;1.30;;;;;;;8.40;46.55;101766.03;685871;28;23528;-56
2021/04/17 00:17:12;;;;;;;1.38;1.30;;;;;;;8.41;46.43;101764.16;682313;28;45311;-52
2021/04/17 00:17:33;;;;;;;1.20;1.20;;;;;;;8.40;46.32;101766.03;682547;28;44378;-55
2021/04/17 00:17:55;;;;;;;1.10;1.10;;;;;;;8.40;46.56;101765.16;683010;28;22429;-56
2021/04/17 00:18:16;;;;;;;1.33;1.30;;;;;;;8.39;46.34;101766.16;683240;28;21680;-52
2021/04/17 00:18:37;;;;;;;1.40;1.40;;;;;;;8.38;46.58;101765.28;683644;28;1164;-59
2021/04/17 00:18:58;;;;;;;1.30;1.30;;;;;;;8.38;46.42;101765.28;683047;28;47249;-55
2021/04/17 00:19:21;;;;;;;1.27;1.27;;;;;;;8.38;46.35;101761.75;686465;28;884;-56
2021/04/17 00:19:44;;;;;;;1.20;1.20;;;;;;;8.38;46.71;101759.91;686500;28;1514;-54
2021/04/17 00:20:06;;;;;;;1.40;1.30;;;;;;;8.37;46.49;101758.22;684015;28;44703;-58
2021/04/17 00:20:27;;;;;;;1.30;1.20;;;;;;;8.39;46.69;101763.47;684088;28;46375;-57
2021/04/17 00:20:48;;;;;;;1.50;1.40;;;;;;;8.38;46.52;101762.59;680621;29;46374;-56
2021/04/17 00:21:09;;;;;;;1.63;1.52;;;;;;;8.38;46.51;101761.75;681809;29;21788;-53
2021/04/17 00:21:31;;;;;;;1.45;1.27;;;;;;;8.37;46.61;101754.66;682998;28;22235;-52
2021/04/17 00:21:52;;;;;;;1.30;1.20;;;;;;;8.38;46.65;101759.06;683063;28;21231;-51
2021/04/17 00:22:14;;;;;;;1.30;1.30;;;;;;;8.38;46.78;101764.44;682595;28;44361;-56
2021/04/17 00:22:35;;;;;;;1.60;1.50;;;;;;;8.39;46.52;101756.22;681824;28;40279;-54
2021/04/17 00:22:57;;;;;;;1.45;1.35;;;;;;;8.39;46.57;101755.38;683995;28;22499;-57
2021/04/17 00:23:18;;;;;;;1.27;1.25;;;;;;;8.41;46.81;101756.09;684446;28;23327;-55
2021/04/17 00:23:40;;;;;;;1.60;1.50;;;;;;;8.41;46.46;101764.16;685155;28;911;-53
2021/04/17 00:24:01;;;;;;;1.20;1.20;;;;;;;8.40;46.81;101762.47;685413;28;17273;-56
2021/04/17 00:24:23;;;;;;;1.88;1.33;;;;;;;8.39;46.62;101760.78;685238;28;46368;-57
2021/04/17 00:24:44;;;;;;;1.95;1.40;;;;;;;8.37;46.83;101758.22;684793;28;20497;-54
2021/04/17 00:25:06;;;;;;;1.83;1.25;;;;;;;8.39;46.78;101750.00;685173;28;7581;-59
2021/04/17 00:25:27;;;;;;;1.60;1.50;;;;;;;8.36;46.83;101755.66;683983;28;46330;-54
2021/04/17 00:25:48;;;;;;;1.60;1.48;;;;;;;8.38;46.57;101753.69;685541;28;21640;-59
2021/04/17 00:26:12;;;;;;;1.48;1.38;;;;;;;8.38;46.81;101750.97;686338;28;16101;-58
2021/04/17 00:26:34;;;;;;;2.38;1.40;;;;;;;8.39;46.91;101756.22;685988;28;24396;-57
2021/04/17 00:26:56;;;;;;;1.42;1.25;;;;;;;8.38;46.76;101754.53;684529;28;43692;-54
2021/04/17 00:27:17;;;;;;;1.55;1.25;;;;;;;8.38;46.87;101756.38;683792;28;46452;-54
2021/04/17 00:27:38;;;;;;;1.80;1.27;;;;;;;8.37;46.80;101752.84;684614;28;21624;-56
2021/04/17 00:27:59;;;;;;;1.40;1.30;;;;;;;8.37;46.88;101751.97;684972;28;22429;-52
2021/04/17 00:28:20;;;;;;;1.58;1.48;;;;;;;8.37;47.03;101754.66;685973;28;23474;-57
2021/04/17 00:28:41;;;;;;;1.50;1.40;;;;;;;8.36;47.08;101751.13;685821;28;22413;-57
2021/04/17 00:29:03;;;;;;;2.72;1.40;;;;;;;8.36;46.86;101759.19;684753;28;24349;-55
2021/04/17 00:29:24;;;;;;;2.08;1.40;;;;;;;8.37;46.81;101760.03;683153;28;44371;-54
2021/04/17 00:29:45;;;;;;;1.50;1.40;;;;;;;8.36;46.90;101761.88;684496;28;22397;-58
2021/04/17 00:30:08;;;;;;;1.50;1.40;;;;;;;8.36;47.18;101756.50;684682;28;23434;-54
2021/04/17 00:30:29;;;;;;;1.90;1.80;;;;;;;8.36;47.05;101752.97;685122;28;52641;-57
2021/04/17 00:30:51;;;;;;;1.50;1.40;;;;;;;8.35;47.27;101754.78;686800;28;888;-58
2021/04/17 00:31:13;;;;;;;2.33;1.95;;;;;;;8.36;47.00;101751.13;686910;28;1684;-57
2021/04/17 00:31:35;;;;;;;1.55;1.40;;;;;;;8.36;47.02;101756.50;686436;28;1620;-58
2021/04/17 00:31:57;;;;;;;1.50;1.40;;;;;;;8.35;47.00;101754.78;684856;28;56028;-55
2021/04/17 00:32:18;;;;;;;1.50;1.40;;;;;;;8.35;47.18;101753.94;686087;28;22426;-55
2021/04/17 00:32:39;;;;;;;1.45;1.35;;;;;;;8.34;47.00;101747.72;686818;28;939;-51
2021/04/17 00:33:01;;;;;;;1.50;1.40;;;;;;;8.35;47.20;101754.78;685795;28;17943;-56
2021/04/17 00:33:22;;;;;;;1.10;1.10;;;;;;;8.35;47.14;101754.78;684695;28;46428;-57
2021/04/17 00:33:43;;;;;;;1.50;1.33;;;;;;;8.36;47.16;101756.50;685888;28;23146;-55
2021/04/17 00:34:05;;;;;;;1.58;1.48;;;;;;;8.35;46.84;101756.66;686053;28;17049;-54
2021/04/17 00:34:27;;;;;;;2.08;1.50;;;;;;;8.34;47.07;101752.25;685304;28;44372;-55
2021/04/17 00:34:48;;;;;;;2.25;1.45;;;;;;;8.33;47.18;101746.00;682384;28;41467;-55
2021/04/17 00:35:10;;;;;;;1.67;1.58;;;;;;;8.32;46.98;101754.22;683181;28;23549;-56
2021/04/17 00:35:31;;;;;;;1.50;1.40;;;;;;;8.32;47.12;101756.91;682191;28;46254;-55
2021/04/17 00:35:52;;;;;;;1.67;1.58;;;;;;;8.32;47.23;101756.91;682945;28;23545;-52
2021/04/17 00:36:14;;;;;;;1.67;1.58;;;;;;;8.29;47.29;101745.44;683188;28;18593;-55
2021/04/17 00:36:35;;;;;;;1.55;1.50;;;;;;;8.28;47.23;101743.72;683204;28;46384;-53
2021/04/17 00:36:56;;;;;;;1.60;1.50;;;;;;;8.29;47.16;101745.44;684689;28;22195;-55
2021/04/17 00:37:18;;;;;;;2.13;1.50;;;;;;;8.28;47.23;101749.13;684698;28;23471;-57
2021/04/17 00:37:43;;;;;;;1.40;1.40;;;;;;;8.28;47.23;101749.13;683199;28;60753;-55
2021/04/17 00:38:05;;;;;;;1.75;1.50;;;;;;;8.25;47.54;101749.38;686911;28;1174;-54
2021/04/17 00:38:28;;;;;;;2.45;1.67;;;;;;;8.28;47.32;101750.97;686814;28;921;-56
2021/04/17 00:38:49;;;;;;;1.92;1.73;;;;;;;8.28;47.40;101751.81;684126;28;56751;-55
2021/04/17 00:39:10;;;;;;;2.00;1.50;;;;;;;8.29;47.53;101749.97;686416;28;6322;-56
2021/04/17 00:39:31;;;;;;;1.40;1.30;;;;;;;8.29;47.60;101755.34;685229;28;23687;-56
2021/04/17 00:39:52;;;;;;;1.50;1.40;;;;;;;8.29;47.53;101753.53;686126;28;9528;-54
2021/04/17 00:40:14;;;;;;;1.63;1.50;;;;;;;8.30;47.38;101749.81;685868;28;24343;-56
2021/04/17 00:40:35;;;;;;;1.60;1.50;;;;;;;8.28;47.44;101749.13;683951;28;45326;-54
2021/04/17 00:40:58;;;;;;;1.60;1.50;;;;;;;8.28;47.15;101749.13;685923;28;22525;-53
2021/04/17 00:41:19;;;;;;;1.70;1.60;;;;;;;8.31;47.28;101758.78;683327;28;65661;-55
2021/04/17 00:41:40;;;;;;;1.60;1.50;;;;;;;8.28;47.33;101749.13;684946;28;9421;-56
2021/04/17 00:42:02;;;;;;;1.42;1.33;;;;;;;8.27;47.16;101750.09;685429;28;21514;-57
2021/04/17 00:42:24;;;;;;;1.88;1.20;;;;;;;8.29;47.51;101753.53;685100;28;43718;-54
2021/04/17 00:42:45;;;;;;;1.33;1.33;;;;;;;8.30;47.31;101751.66;685121;28;44383;-52
2021/04/17 00:43:06;;;;;;;2.10;1.67;;;;;;;8.29;47.29;101744.56;683011;28;22479;-57
2021/04/17 00:43:28;;;;;;;1.77;1.50;;;;;;;8.30;47.27;101755.19;682840;28;22400;-58
2021/04/17 00:43:49;;;;;;;1.50;1.40;;;;;;;8.29;47.37;101741.88;682310;28;46096;-53
2021/04/17 00:44:11;;;;;;;1.33;1.23;;;;;;;8.29;47.52;101745.44;683387;28;21763;-58
2021/04/17 00:44:33;;;;;;;1.50;1.40;;;;;;;8.32;47.60;101747.00;682075;28;46324;-56
2021/04/17 00:44:55;;;;;;;1.70;1.50;;;;;;;8.35;47.54;101748.56;683097;28;47554;-55
2021/04/17 00:45:16;;;;;;;1.60;1.50;;;;;;;8.35;47.25;101748.56;685261;28;45048;-54
2021/04/17 00:45:37;;;;;;;1.40;1.40;;;;;;;8.34;47.29;101745.03;685756;28;23530;-60
2021/04/17 00:45:59;;;;;;;1.55;1.45;;;;;;;8.35;47.31;101746.72;685908;28;23414;-55
2021/04/17 00:46:20;;;;;;;1.45;1.40;;;;;;;8.36;47.27;101745.75;685652;28;39391;-54
2021/04/17 00:46:42;;;;;;;1.45;1.35;;;;;;;8.37;47.15;101743.88;686288;28;14830;-58
2021/04/17 00:47:04;;;;;;;1.30;1.30;;;;;;;8.38;47.11;101748.28;686225;28;20206;-56
2021/04/17 00:47:25;;;;;;;1.52;1.42;;;;;;;8.37;47.06;101747.44;684415;28;68418;-53
2021/04/17 00:47:47;;;;;;;3.05;1.60;;;;;;;8.38;47.01;101748.28;682472;28;23458;-54
2021/04/17 00:48:08;;;;;;;2.13;1.52;;;;;;;8.38;46.98;101753.69;682742;28;23507;-56
2021/04/17 00:48:29;;;;;;;1.70;1.60;;;;;;;8.38;46.90;101746.44;683047;28;22278;-56
2021/04/17 00:48:50;;;;;;;1.65;1.55;;;;;;;8.36;47.09;101740.34;681050;29;47212;-55
2021/04/17 00:49:12;;;;;;;1.30;1.30;;;;;;;8.35;47.17;101743.19;681281;29;10308;-52
2021/04/17 00:49:33;;;;;;;1.33;1.23;;;;;;;8.34;47.26;101744.16;678453;29;46364;-54
2021/04/17 00:49:55;;;;;;;1.50;1.40;;;;;;;8.34;47.18;101749.53;682801;28;21247;-55
2021/04/17 00:50:16;;;;;;;1.60;1.50;;;;;;;8.32;47.30;101747.00;681950;28;46386;-55
2021/04/17 00:50:37;;;;;;;1.60;1.50;;;;;;;8.33;47.05;101742.47;683835;28;4400;-53
2021/04/17 00:51:00;;;;;;;1.60;1.50;;;;;;;8.29;47.22;101742.75;684673;28;1162;-53
2021/04/17 00:51:21;;;;;;;1.20;1.20;;;;;;;8.32;47.26;101738.06;683936;28;69464;-54
2021/04/17 00:51:43;;;;;;;1.50;1.40;;;;;;;8.32;47.40;101749.69;683035;28;19170;-55
2021/04/17 00:52:05;;;;;;;1.70;1.60;;;;;;;8.34;47.20;101745.03;682834;28;18911;-58
2021/04/17 00:52:27;;;;;;;2.60;1.50;;;;;;;8.35;47.22;101740.50;682613;28;46366;-57
2021/04/17 00:52:50;;;;;;;1.50;1.20;;;;;;;8.35;47.17;101740.50;679444;28;113959;-56
2021/04/17 00:53:14;;;;;;;1.65;1.50;;;;;;;8.35;47.01;101745.88;682500;28;43703;-51
2021/04/17 00:53:36;;;;;;;2.22;1.58;;;;;;;8.36;47.05;101739.50;681105;28;115213;-59
2021/04/17 00:53:59;;;;;;;1.50;1.40;;;;;;;8.35;47.22;101744.03;684876;28;47173;-56
2021/04/17 00:54:24;;;;;;;1.45;1.38;;;;;;;8.36;47.07;101742.22;682845;28;62609;-59
2021/04/17 00:54:45;;;;;;;1.55;1.45;;;;;;;8.36;47.09;101731.44;684357;28;22372;-56
2021/04/17 00:55:07;;;;;;;1.48;1.38;;;;;;;8.37;46.97;101728.59;684385;28;22416;-60
2021/04/17 00:55:28;;;;;;;1.50;1.33;;;;;;;8.37;46.99;101731.31;683749;28;44135;-60
2021/04/17 00:55:49;;;;;;;1.55;1.30;;;;;;;8.37;47.08;101731.31;684297;28;22410;-53
2021/04/17 00:56:11;;;;;;;1.52;1.42;;;;;;;8.37;46.90;101730.44;683196;28;46331;-55
2021/04/17 00:56:33;;;;;;;1.40;1.40;;;;;;;8.36;47.04;101739.50;684901;28;46309;-56
2021/04/17 00:56:54;;;;;;;1.30;1.30;;;;;;;8.36;46.92;101728.75;686139;28;20633;-57
2021/04/17 00:57:15;;;;;;;1.60;1.50;;;;;;;8.37;47.03;101733.13;686169;28;21447;-54
2021/04/17 00:57:37;;;;;;;2.10;1.70;;;;;;;8.37;46.85;101730.44;685179;28;46369;-56
2021/04/17 00:57:58;;;;;;;1.70;1.50;;;;;;;8.36;46.81;101736.81;685306;28;46116;-56
2021/04/17 00:58:19;;;;;;;1.55;1.45;;;;;;;8.36;46.86;101739.50;685864;28;18764;-51
2021/04/17 00:58:40;;;;;;;2.20;1.30;;;;;;;8.35;47.00;101737.81;686154;28;17748;-56
2021/04/17 00:59:03;;;;;;;1.83;1.27;;;;;;;8.34;46.92;101744.16;686544;28;16515;-56
2021/04/17 00:59:24;;;;;;;1.92;1.40;;;;;;;8.32;46.98;101738.91;684327;28;45294;-57
2021/04/17 00:59:45;;;;;;;1.70;1.33;;;;;;;8.30;46.97;101739.06;685658;28;22549;-53
2021/04/17 01:00:09;;;;;;;1.80;1.42;;;;;;;8.32;47.04;101744.31;685430;28;46347;-57
2021/04/17 01:00:32;;;;;;;1.50;1.40;;;;;;;8.32;47.07;101738.06;682594;28;90719;-59
2021/04/17 01:00:53;;;;;;;1.65;1.30;;;;;;;8.31;47.09;101742.63;684655;28;69429;-56
2021/04/17 01:01:15;;;;;;;1.40;1.30;;;;;;;8.32;47.26;101744.31;685311;28;35758;-55
2021/04/17 01:01:37;;;;;;;1.55;1.45;;;;;;;8.32;47.29;101735.38;684557;28;22417;-57
2021/04/17 01:01:58;;;;;;;2.00;1.58;;;;;;;8.33;47.56;101737.09;685151;28;46648;-55
2021/04/17 01:02:26;;;;;;;1.55;1.45;;;;;;;8.32;47.30;101735.38;686227;28;21522;-56
2021/04/17 01:02:51;;;;;;;1.63;1.40;;;;;;;8.33;47.40;101732.56;680446;28;160754;-55
2021/04/17 01:03:18;;;;;;;1.50;1.40;;;;;;;8.33;47.23;101726.34;681694;28;138008;-59
2021/04/17 01:03:44;;;;;;;1.40;1.30;;;;;;;8.33;47.30;101734.41;681126;28;137767;-54
2021/04/17 01:04:08;;;;;;;1.52;1.50;;;;;;;8.34;47.34;101738.78;682229;28;136416;-52
2021/04/17 01:04:32;;;;;;;1.90;1.60;;;;;;;8.35;47.31;101741.34;683517;28;90761;-52
2021/04/17 01:04:53;;;;;;;1.40;1.35;;;;;;;8.34;47.21;101742.34;683596;28;69153;-55
2021/04/17 01:05:16;;;;;;;1.45;1.35;;;;;;;8.35;47.14;101744.03;685376;28;45312;-56
2021/04/17 01:05:38;;;;;;;1.67;1.58;;;;;;;8.35;47.16;101744.03;684822;28;46349;-56
2021/04/17 01:06:03;;;;;;;1.58;1.48;;;;;;;8.36;47.09;101750.28;685760;28;20245;-53
2021/04/17 01:06:32;;;;;;;1.52;1.42;;;;;;;8.36;47.31;101744.91;681747;28;115093;-55
2021/04/17 01:06:58;;;;;;;1.52;1.42;;;;;;;8.35;47.21;101738.63;681928;28;130221;-56
2021/04/17 01:07:24;;;;;;;1.40;1.30;;;;;;;8.34;47.07;101742.34;682248;28;134285;-54
2021/04/17 01:07:49;;;;;;;2.00;1.40;;;;;;;8.34;47.32;101747.72;682109;28;139248;-56
2021/04/17 01:08:20;;;;;;;1.27;1.25;;;;;;;8.33;47.24;101735.25;679260;28;138185;-54
2021/04/17 01:08:47;;;;;;;1.60;1.50;;;;;;;8.33;47.15;101740.63;680000;28;107683;-51
2021/04/17 01:09:12;;;;;;;1.60;1.50;;;;;;;8.30;47.42;101735.53;679383;28;136122;-54
2021/04/17 01:09:40;;;;;;;1.98;1.38;;;;;;;8.32;47.26;101743.47;681261;28;60912;-55
2021/04/17 01:10:07;;;;;;;1.65;1.38;;;;;;;8.32;47.27;101741.59;680465;28;127372;-54
2021/04/17 01:10:33;;;;;;;1.30;1.25;;;;;;;8.32;47.42;101738.91;682021;28;138834;-56
2021/04/17 01:10:57;;;;;;;1.40;1.40;;;;;;;8.33;47.30;101746.00;682133;28;129220;-53
2021/04/17 01:11:23;;;;;;;1.58;1.48;;;;;;;8.32;47.45;101738.91;682254;28;93173;-52
2021/04/17 01:11:48;;;;;;;1.58;1.48;;;;;;;8.33;47.24;101743.31;684414;28;60531;-57
2021/04/17 01:12:11;;;;;;;1.75;1.48;;;;;;;8.32;47.55;101740.78;684347;28;13611;-54
2021/04/17 01:12:33;;;;;;;2.10;1.63;;;;;;;8.32;47.53;101740.78;681786;28;90783;-57
2021/04/17 01:12:56;;;;;;;1.30;1.25;;;;;;;8.29;47.38;101745.44;684498;28;4667;-54
2021/04/17 01:13:17;;;;;;;1.25;1.20;;;;;;;8.30;47.42;101743.59;681370;29;31301;-56
2021/04/17 01:13:40;;;;;;;1.60;1.50;;;;;;;8.32;47.49;101740.78;681685;29;1291;-56
2021/04/17 01:14:01;;;;;;;1.73;1.50;;;;;;;8.31;47.41;101739.94;681029;28;55920;-57
2021/04/17 01:14:22;;;;;;;2.35;1.67;;;;;;;8.29;47.50;101729.28;683161;28;22463;-54
2021/04/17 01:14:45;;;;;;;1.92;1.70;;;;;;;8.32;47.49;101740.78;682582;28;21532;-56
2021/04/17 01:15:11;;;;;;;1.50;1.40;;;;;;;8.32;47.62;101736.22;681506;28;93364;-55
2021/04/17 01:15:32;;;;;;;1.45;1.35;;;;;;;8.33;47.51;101727.16;683009;28;106819;-52
2021/04/17 01:15:54;;;;;;;1.88;1.58;;;;;;;8.34;47.31;101736.97;682601;28;20073;-55
2021/04/17 01:16:16;;;;;;;2.08;1.80;;;;;;;8.36;47.47;101731.44;682200;28;46387;-57
2021/04/17 01:16:38;;;;;;;1.77;1.50;;;;;;;8.36;47.25;101732.28;681660;28;46465;-56
2021/04/17 01:17:00;;;;;;;1.38;1.33;;;;;;;8.36;47.25;101739.50;682741;28;32541;-53
2021/04/17 01:17:22;;;;;;;1.50;1.40;;;;;;;8.35;47.39;101737.81;682121;28;44513;-56
2021/04/17 01:17:45;;;;;;;1.50;1.40;;;;;;;8.35;47.48;101730.56;683327;28;42370;-58
2021/04/17 01:18:06;;;;;;;1.60;1.50;;;;;;;8.36;47.46;101728.75;684199;28;70676;-55
2021/04/17 01:18:28;;;;;;;1.65;1.50;;;;;;;8.36;47.45;101728.75;685187;28;46411;-56
2021/04/17 01:18:51;;;;;;;1.50;1.40;;;;;;;8.36;47.47;101737.66;685165;28;21533;-54
2021/04/17 01:19:13;;;;;;;1.40;1.30;;;;;;;8.36;47.19;101729.59;683238;28;67515;-58
2021/04/17 01:19:48;;;;;;;1.33;1.30;;;;;;;8.35;47.43;101735.94;684297;28;45240;-52
2021/04/17 01:20:16;;;;;;;1.40;1.30;;;;;;;8.36;47.44;101726.06;681730;28;137805;-54
2021/04/17 01:20:42;;;;;;;1.60;1.50;;;;;;;8.36;47.33;101723.38;681253;28;138041;-55
2021/04/17 01:21:04;;;;;;;1.67;1.58;;;;;;;8.38;47.18;101727.59;681885;28;138088;-58
2021/04/17 01:21:25;;;;;;;1.67;1.58;;;;;;;8.39;47.21;101728.47;685047;28;46433;-56
2021/04/17 01:21:47;;;;;;;1.58;1.48;;;;;;;8.36;47.37;101726.06;685792;28;23409;-53
2021/04/17 01:22:08;;;;;;;1.60;1.50;;;;;;;8.38;47.17;101732.13;685288;28;44300;-58
2021/04/17 01:22:30;;;;;;;1.50;1.40;;;;;;;8.38;47.22;101727.59;685828;28;23557;-56
2021/04/17 01:23:04;;;;;;;1.50;1.40;;;;;;;8.40;47.39;101727.47;684160;28;46311;-59
2021/04/17 01:23:30;;;;;;;1.90;1.48;;;;;;;8.43;47.24;101724.50;681932;28;137981;-55
2021/04/17 01:23:55;;;;;;;1.40;1.30;;;;;;;8.44;47.05;101734.31;682203;28;138279;-58
2021/04/17 01:24:19;;;;;;;1.77;1.60;;;;;;;8.42;47.07;101730.88;683087;28;116337;-57
2021/04/17 01:24:43;;;;;;;1.58;1.48;;;;;;;8.41;47.14;101724.63;683604;28;92261;-57
2021/04/17 01:25:07;;;;;;;1.60;1.50;;;;;;;8.42;47.19;101728.19;683754;28;90796;-53
2021/04/17 01:25:39;;;;;;;1.67;1.58;;;;;;;8.41;47.08;101727.31;683187;28;90792;-51
2021/04/17 01:26:02;;;;;;;1.63;1.52;;;;;;;8.40;47.14;101730.16;681829;28;137252;-52
2021/04/17 01:26:25;;;;;;;1.55;1.38;;;;;;;8.42;47.06;101722.81;684222;28;70147;-57
2021/04/17 01:26:46;;;;;;;1.40;1.27;;;;;;;8.42;47.14;101733.56;684990;28;44379;-56
2021/04/17 01:27:07;;;;;;;1.30;1.30;;;;;;;8.42;47.18;101728.19;685700;28;21201;-55
2021/04/17 01:27:29;;;;;;;1.33;1.20;;;;;;;8.42;46.81;101729.03;685097;28;46139;-56
2021/04/17 01:27:50;;;;;;;1.42;1.35;;;;;;;8.42;46.96;101729.03;681532;28;45224;-54
2021/04/17 01:28:11;;;;;;;1.55;1.45;;;;;;;8.42;46.90;101731.72;683217;28;22427;-57
2021/04/17 01:28:34;;;;;;;1.50;1.40;;;;;;;8.42;47.14;101730.88;682824;28;24221;-54
2021/04/17 01:28:57;;;;;;;1.50;1.40;;;;;;;8.42;46.95;101736.28;681455;28;70361;-56
2021/04/17 01:29:19;;;;;;;1.50;1.40;;;;;;;8.41;47.19;101726.47;681001;28;70057;-55
2021/04/17 01:29:42;;;;;;;1.30;1.20;;;;;;;8.41;47.10;101734.56;682416;28;46519;-57
2021/04/17 01:30:07;;;;;;;1.20;1.20;;;;;;;8.39;47.10;101728.47;684144;28;68520;-56
2021/04/17 01:30:29;;;;;;;1.50;1.40;;;;;;;8.40;46.93;101735.53;680787;28;91228;-55
2021/04/17 01:30:52;;;;;;;1.52;1.42;;;;;;;8.40;47.05;101738.22;682383;28;25598;-53
2021/04/17 01:31:16;;;;;;;1.50;1.48;;;;;;;8.40;46.82;101732.84;681116;28;69238;-55
2021/04/17 01:31:40;;;;;;;1.25;1.25;;;;;;;8.39;47.02;101728.47;680591;28;92355;-58
2021/04/17 01:32:02;;;;;;;1.40;1.30;;;;;;;8.41;46.98;101737.25;680560;28;90800;-56
2021/04/17 01:32:24;;;;;;;1.50;1.40;;;;;;;8.41;47.14;101732.69;682207;28;45669;-56
2021/04/17 01:32:47;;;;;;;1.75;1.65;;;;;;;8.43;47.03;101736.16;683375;28;46445;-57
2021/04/17 01:33:09;;;;;;;1.50;1.40;;;;;;;8.42;46.97;101731.72;683546;28;70185;-56
2021/04/17 01:33:33;;;;;;;1.40;1.30;;;;;;;8.43;47.00;101735.25;685651;28;21579;-57
2021/04/17 01:33:56;;;;;;;1.50;1.40;;;;;;;8.42;46.96;101731.72;681663;28;116093;-54
2021/04/17 01:34:18;;;;;;;1.40;1.30;;;;;;;8.42;46.93;101733.56;684208;28;69467;-57
2021/04/17 01:34:39;;;;;;;1.50;1.40;;;;;;;8.41;46.99;101738.09;685694;28;21355;-53
2021/04/17 01:35:01;;;;;;;1.70;1.60;;;;;;;8.41;46.98;101726.47;685079;28;44349;-60
2021/04/17 01:35:22;;;;;;;2.37;1.63;;;;;;;8.41;46.86;101734.56;686049;28;22410;-52
2021/04/17 01:35:44;;;;;;;1.80;1.40;;;;;;;8.40;46.81;101735.53;685032;28;46016;-53
2021/04/17 01:36:07;;;;;;;1.52;1.40;;;;;;;8.41;46.92;101734.56;685010;28;46341;-55
2021/04/17 01:36:29;;;;;;;1.77;1.30;;;;;;;8.40;46.97;101730.16;684029;28;45378;-55
2021/04/17 01:36:51;;;;;;;1.40;1.40;;;;;;;8.38;46.90;101734.84;684495;28;64723;-52
2021/04/17 01:37:13;;;;;;;1.80;1.30;;;;;;;8.38;47.01;101738.38;684796;28;39069;-54
2021/04/17 01:38:17;;;;;;;1.75;1.65;;;;;;;8.39;46.85;101733.84;685057;28;46336;-54
2021/04/17 01:38:41;;;;;;;1.42;1.33;;;;;;;8.38;47.22;101729.44;670957;29;137387;-54
2021/04/17 01:39:05;;;;;;;1.50;1.40;;;;;;;8.37;46.96;101734.00;678037;28;44206;-55
2021/04/17 01:39:28;;;;;;;1.33;1.30;;;;;;;8.36;46.98;101731.44;682354;28;116227;-57
2021/04/17 01:39:50;;;;;;;1.30;1.30;;;;;;;8.35;46.95;101738.63;684886;28;47362;-54
2021/04/17 01:40:13;;;;;;;1.40;1.30;;;;;;;8.35;47.01;101730.56;685831;28;19495;-52
2021/04/17 01:40:36;;;;;;;2.10;1.38;;;;;;;8.36;47.12;101723.38;683308;28;65793;-55
2021/04/17 01:41:02;;;;;;;1.58;1.48;;;;;;;8.35;46.98;101727.03;685411;28;38704;-53
2021/04/17 01:41:27;;;;;;;1.40;1.30;;;;;;;8.34;47.07;101736.09;682616;28;115239;-55
2021/04/17 01:41:50;;;;;;;1.50;1.40;;;;;;;8.33;47.24;101727.16;683396;28;91315;-57
2021/04/17 01:42:15;;;;;;;1.45;1.20;;;;;;;8.35;47.36;101740.50;684645;28;15021;-53
2021/04/17 01:42:36;;;;;;;1.87;1.37;;;;;;;8.34;47.25;101728.00;682983;28;92324;-55
2021/04/17 01:42:57;;;;;;;1.42;1.33;;;;;;;8.33;47.48;101729.88;684507;28;46527;-52
2021/04/17 01:43:22;;;;;;;2.13;1.40;;;;;;;8.34;47.58;101728.88;686461;28;4069;-56
2021/04/17 01:43:47;;;;;;;1.60;1.50;;;;;;;8.33;47.76;101734.41;685314;28;38783;-56
2021/04/17 01:44:11;;;;;;;1.55;1.45;;;;;;;8.35;47.98;101735.09;683731;28;93180;-56
2021/04/17 01:44:35;;;;;;;1.50;1.40;;;;;;;8.33;48.07;101716.41;685244;28;37346;-55
2021/04/17 01:44:56;;;;;;;1.60;1.50;;;;;;;8.34;48.05;101728.88;683807;28;92219;-53
2021/04/17 01:45:20;;;;;;;1.50;1.40;;;;;;;8.34;48.08;101720.81;685092;28;23611;-53
2021/04/17 01:45:41;;;;;;;1.23;1.23;;;;;;;8.34;48.28;101722.63;684408;28;66089;-52
2021/04/17 01:46:06;;;;;;;1.50;1.27;;;;;;;8.33;48.40;101727.16;684449;28;44276;-56
2021/04/17 01:46:30;;;;;;;1.70;1.30;;;;;;;8.33;48.37;101718.25;680411;28;90449;-54
2021/04/17 01:46:56;;;;;;;1.88;1.35;;;;;;;8.34;48.16;101719.94;680722;28;92240;-55
2021/04/17 01:47:18;;;;;;;2.03;1.30;;;;;;;8.34;48.30;101717.25;678968;28;138886;-56
2021/04/17 01:47:39;;;;;;;1.38;1.27;;;;;;;8.35;48.31;101718.97;682750;28;22347;-54